Time;durP1;ratioP1;P1;durP2;ratioP2;P2;SDS_P1;SDS_P2;PMS_P1;PMS_P2;Temp;Humidity;BMP_temperature;BMP_pressure;BME280_temperature;BME280_humidity;BME280_pressure;Samples;Min_cycle;Max_cycle;Signal;HPM_P1;HPM_P2
2021/07/09 00:02:08;;;;;;;9.02;7.57;;;30.00;81.00;;;;;;5088438;28;20040;-57
2021/07/09 00:04:35;;;;;;;10.32;7.95;;;30.00;81.00;;;;;;5095671;28;20048;-57
2021/07/09 00:07:03;;;;;;;11.95;8.13;;;30.00;81.40;;;;;;5094972;28;20490;-56
2021/07/09 00:09:31;;;;;;;11.00;7.88;;;29.80;81.60;;;;;;5095481;28;20048;-57
2021/07/09 00:11:59;;;;;;;13.40;8.85;;;29.80;81.70;;;;;;5095508;28;20048;-57
2021/07/09 00:14:32;;;;;;;11.00;8.35;;;29.80;81.50;;;;;;5095517;28;20131;-57
2021/07/09 00:17:00;;;;;;;10.02;7.40;;;29.70;81.20;;;;;;5087270;28;20044;-57
2021/07/09 00:19:27;;;;;;;11.18;8.45;;;29.70;80.70;;;;;;5090537;28;20438;-57
2021/07/09 00:21:57;;;;;;;10.35;8.05;;;29.70;80.30;;;;;;5095681;28;20113;-57
2021/07/09 00:24:25;;;;;;;10.45;7.55;;;29.60;80.20;;;;;;5095518;28;20093;-57
2021/07/09 00:26:52;;;;;;;9.27;7.47;;;29.50;80.20;;;;;;5094520;28;20040;-57
2021/07/09 00:29:20;;;;;;;9.18;7.55;;;29.40;80.20;;;;;;5095365;28;20048;-57
2021/07/09 00:31:48;;;;;;;12.05;8.63;;;29.40;80.00;;;;;;5095262;28;20044;-57
2021/07/09 00:34:17;;;;;;;17.80;8.40;;;29.40;80.00;;;;;;5095849;28;20059;-57
2021/07/09 00:36:45;;;;;;;10.93;8.68;;;29.40;80.10;;;;;;5077042;28;20397;-57
2021/07/09 00:39:13;;;;;;;10.73;7.95;;;29.40;79.80;;;;;;5094797;28;20044;-57
2021/07/09 00:41:40;;;;;;;11.68;7.57;;;29.50;79.70;;;;;;5076576;28;20420;-57
2021/07/09 00:44:09;;;;;;;12.27;7.53;;;29.50;79.40;;;;;;5095082;28;20036;-57
2021/07/09 00:46:40;;;;;;;9.82;7.90;;;29.50;79.10;;;;;;5095250;28;20093;-57
2021/07/09 00:49:09;;;;;;;13.00;7.82;;;29.50;78.90;;;;;;5094946;28;20040;-57
2021/07/09 00:51:38;;;;;;;8.93;7.28;;;29.50;78.90;;;;;;5076433;28;20048;-57
2021/07/09 00:54:06;;;;;;;9.52;7.40;;;29.50;78.90;;;;;;5070057;28;20047;-57
2021/07/09 00:56:35;;;;;;;11.27;8.23;;;29.50;78.80;;;;;;5094916;28;20036;-57
2021/07/09 00:59:04;;;;;;;11.77;7.97;;;29.50;78.70;;;;;;5086413;28;20467;-57
2021/07/09 01:01:32;;;;;;;7.85;6.68;;;29.60;78.50;;;;;;5094617;28;20062;-56
2021/07/09 01:03:59;;;;;;;13.18;6.88;;;29.60;78.70;;;;;;5094495;28;20121;-57
2021/07/09 01:06:27;;;;;;;9.57;7.57;;;29.60;78.20;;;;;;5094821;28;20044;-57
2021/07/09 01:08:55;;;;;;;8.93;6.82;;;29.60;78.00;;;;;;5094624;28;20068;-57
2021/07/09 01:11:24;;;;;;;8.77;7.57;;;29.60;77.90;;;;;;5059606;28;20050;-55
2021/07/09 01:13:52;;;;;;;12.18;8.15;;;29.60;77.70;;;;;;5094487;28;20051;-57
2021/07/09 01:16:20;;;;;;;11.45;8.05;;;29.60;77.60;;;;;;5077003;28;20039;-57
2021/07/09 01:18:48;;;;;;;9.60;7.95;;;29.60;77.60;;;;;;5094313;28;20067;-57
2021/07/09 01:21:15;;;;;;;11.50;7.53;;;29.60;77.70;;;;;;5094107;28;20059;-57
2021/07/09 01:23:43;;;;;;;10.38;7.55;;;29.60;77.70;;;;;;5093923;28;20054;-57
2021/07/09 01:26:11;;;;;;;10.43;7.50;;;29.50;77.80;;;;;;5076322;28;20123;-57
2021/07/09 01:28:40;;;;;;;8.45;6.47;;;29.50;77.90;;;;;;5094298;28;20051;-57
2021/07/09 01:31:08;;;;;;;9.90;8.13;;;29.50;77.90;;;;;;5094616;28;20044;-57
2021/07/09 01:33:37;;;;;;;10.52;7.78;;;29.50;78.00;;;;;;5075835;28;20363;-56
2021/07/09 01:36:05;;;;;;;9.57;7.70;;;29.50;78.10;;;;;;5068926;28;20044;-57
2021/07/09 01:38:33;;;;;;;10.38;8.43;;;29.50;78.20;;;;;;5092709;28;20040;-57
2021/07/09 01:41:01;;;;;;;8.90;7.22;;;29.50;78.30;;;;;;5085495;28;20044;-57
2021/07/09 01:43:30;;;;;;;8.15;7.15;;;29.50;78.40;;;;;;5072036;28;20047;-57
2021/07/09 01:45:58;;;;;;;10.23;7.22;;;29.50;78.50;;;;;;5093860;28;20044;-57
2021/07/09 01:48:26;;;;;;;8.57;7.30;;;29.50;78.50;;;;;;5093677;28;20036;-57
2021/07/09 01:50:54;;;;;;;9.38;6.55;;;29.40;78.50;;;;;;5075642;28;20063;-57
2021/07/09 01:53:22;;;;;;;10.27;7.55;;;29.50;78.50;;;;;;5093412;28;20658;-57
2021/07/09 01:55:49;;;;;;;10.05;7.40;;;29.40;79.00;;;;;;5075757;28;20040;-57
2021/07/09 01:58:17;;;;;;;10.70;8.05;;;29.40;78.50;;;;;;5094032;28;20068;-57
2021/07/09 02:00:45;;;;;;;9.73;6.90;;;29.40;78.60;;;;;;5093482;28;20105;-57
2021/07/09 02:03:13;;;;;;;9.13;7.00;;;29.40;78.70;;;;;;5058629;28;20097;-57
2021/07/09 02:05:41;;;;;;;8.57;6.40;;;29.30;78.70;;;;;;5058238;28;20402;-57
2021/07/09 02:08:08;;;;;;;8.57;7.53;;;29.30;78.80;;;;;;5075091;28;20123;-57
2021/07/09 02:10:39;;;;;;;9.25;7.53;;;29.30;78.80;;;;;;5075599;28;20375;-57
2021/07/09 02:13:08;;;;;;;8.02;6.75;;;29.30;78.80;;;;;;5093630;28;20044;-57
2021/07/09 02:15:45;;;;;;;8.43;6.72;;;29.30;78.80;;;;;;5093238;28;20052;-57
2021/07/09 02:18:14;;;;;;;7.38;6.20;;;29.30;79.00;;;;;;5087461;28;20072;-57
2021/07/09 02:20:43;;;;;;;10.60;7.70;;;29.30;79.20;;;;;;5075382;28;20417;-57
2021/07/09 02:23:14;;;;;;;9.88;6.95;;;29.30;79.20;;;;;;5075203;28;20040;-57
2021/07/09 02:25:42;;;;;;;11.23;7.38;;;29.30;79.30;;;;;;5093298;28;20512;-57
2021/07/09 02:28:10;;;;;;;7.35;6.25;;;29.30;79.30;;;;;;5093435;28;20048;-57
2021/07/09 02:30:38;;;;;;;9.35;7.35;;;29.30;79.30;;;;;;5093327;28;20039;-57
2021/07/09 02:33:05;;;;;;;9.70;7.00;;;29.30;79.30;;;;;;5092858;28;20089;-57
2021/07/09 02:35:36;;;;;;;9.85;7.15;;;29.30;79.30;;;;;;5092872;28;20044;-57
2021/07/09 02:38:09;;;;;;;9.85;6.47;;;29.30;79.30;;;;;;5084730;28;20489;-57
2021/07/09 02:40:39;;;;;;;12.60;7.20;;;29.30;79.10;;;;;;5093047;28;20051;-57
2021/07/09 02:43:07;;;;;;;8.40;6.50;;;29.30;79.10;;;;;;5091719;28;20044;-57
2021/07/09 02:45:35;;;;;;;7.55;6.50;;;29.30;79.20;;;;;;5091648;28;20040;-57
2021/07/09 02:48:18;;;;;;;12.55;7.05;;;29.30;79.40;;;;;;5069750;28;20056;-57
2021/07/09 02:50:47;;;;;;;8.50;6.47;;;29.30;79.50;;;;;;5074420;28;20163;-57
2021/07/09 02:53:14;;;;;;;9.75;7.10;;;29.30;79.70;;;;;;5092649;28;20089;-57
2021/07/09 02:55:43;;;;;;;8.63;6.30;;;29.20;79.70;;;;;;5092546;28;20462;-57
2021/07/09 02:58:11;;;;;;;9.57;7.13;;;29.20;79.80;;;;;;5093224;28;20047;-57
2021/07/09 03:00:41;;;;;;;8.77;6.88;;;29.20;80.00;;;;;;5092870;28;20052;-57
2021/07/09 03:03:09;;;;;;;9.18;6.60;;;29.20;80.60;;;;;;5074854;28;20511;-57
2021/07/09 03:05:37;;;;;;;9.77;8.13;;;29.30;80.20;;;;;;5092464;28;20040;-57
2021/07/09 03:08:04;;;;;;;8.10;6.47;;;29.20;80.30;;;;;;5074623;28;20069;-57
2021/07/09 03:10:32;;;;;;;9.65;6.53;;;29.20;80.30;;;;;;5092951;28;20036;-57
2021/07/09 03:12:59;;;;;;;9.13;6.97;;;29.20;80.40;;;;;;5092526;28;20075;-57
2021/07/09 03:15:27;;;;;;;8.07;6.93;;;29.20;80.40;;;;;;5074419;28;20044;-56
2021/07/09 03:17:54;;;;;;;10.45;6.20;;;29.20;80.40;;;;;;5092813;28;20123;-57
2021/07/09 03:20:22;;;;;;;9.05;5.97;;;29.20;80.30;;;;;;5092475;28;20097;-57
2021/07/09 03:22:50;;;;;;;9.13;7.55;;;29.30;80.20;;;;;;5074468;28;20047;-57
2021/07/09 03:25:17;;;;;;;7.75;6.43;;;29.30;80.00;;;;;;5093373;28;20048;-57
2021/07/09 03:27:45;;;;;;;10.40;6.60;;;29.30;79.80;;;;;;5092337;28;20040;-57
2021/07/09 03:30:13;;;;;;;9.02;6.32;;;29.30;79.70;;;;;;5092426;28;20412;-57
2021/07/09 03:32:41;;;;;;;11.30;7.63;;;29.30;79.50;;;;;;5092432;28;20036;-57
2021/07/09 03:35:10;;;;;;;8.52;6.63;;;29.30;79.30;;;;;;5092321;28;20511;-57
2021/07/09 03:37:38;;;;;;;8.80;7.00;;;29.30;78.90;;;;;;5092373;28;20052;-57
2021/07/09 03:40:08;;;;;;;8.35;6.65;;;29.30;78.60;;;;;;5075142;28;20093;-57
2021/07/09 03:42:36;;;;;;;9.57;6.22;;;29.40;78.20;;;;;;5092311;28;20486;-57
2021/07/09 03:45:05;;;;;;;8.57;6.70;;;29.40;78.10;;;;;;5085482;28;20094;-57
2021/07/09 03:47:33;;;;;;;7.60;5.93;;;29.40;78.10;;;;;;5092071;28;20040;-56
2021/07/09 03:50:00;;;;;;;8.70;6.68;;;29.40;77.90;;;;;;5083233;28;20128;-57
2021/07/09 03:52:31;;;;;;;8.52;6.40;;;29.40;78.00;;;;;;5088586;28;20058;-57
2021/07/09 03:55:03;;;;;;;7.78;6.45;;;29.40;78.20;;;;;;5041193;28;20059;-57
2021/07/09 03:57:31;;;;;;;8.20;5.90;;;29.40;78.20;;;;;;5092167;28;20093;-57
2021/07/09 03:59:58;;;;;;;11.23;7.80;;;29.40;78.20;;;;;;5074202;28;20039;-57
2021/07/09 04:02:26;;;;;;;9.50;6.50;;;29.40;78.00;;;;;;5093786;28;20090;-57
2021/07/09 04:04:53;;;;;;;7.95;6.20;;;29.50;78.10;;;;;;5077679;28;20036;-57
2021/07/09 04:07:21;;;;;;;10.48;7.25;;;29.50;77.90;;;;;;5096228;28;20251;-57
2021/07/09 04:09:49;;;;;;;8.45;7.30;;;29.50;77.80;;;;;;5077555;28;20074;-57
2021/07/09 04:12:16;;;;;;;10.07;7.15;;;29.60;77.80;;;;;;5077696;28;20062;-57
2021/07/09 04:14:44;;;;;;;10.18;6.38;;;29.70;77.30;;;;;;5095482;28;20052;-57
2021/07/09 04:17:11;;;;;;;10.13;6.65;;;29.80;76.90;;;;;;5060642;28;20051;-57
2021/07/09 04:19:39;;;;;;;10.93;6.25;;;29.90;76.40;;;;;;5077620;28;20060;-57
2021/07/09 04:22:07;;;;;;;9.43;6.57;;;30.00;76.30;;;;;;5095772;28;20044;-57
2021/07/09 04:24:34;;;;;;;9.95;7.40;;;30.10;76.20;;;;;;5095835;28;20082;-57
2021/07/09 04:27:02;;;;;;;11.57;7.13;;;30.20;76.10;;;;;;5077448;28;20403;-57
2021/07/09 04:29:30;;;;;;;9.43;6.60;;;30.30;75.70;;;;;;5095026;28;20040;-57
2021/07/09 04:31:58;;;;;;;10.30;6.63;;;30.40;75.20;;;;;;5095159;28;20048;-57
2021/07/09 04:34:25;;;;;;;8.32;7.28;;;30.50;74.80;;;;;;5095717;28;20060;-57
2021/07/09 04:36:53;;;;;;;19.23;6.55;;;30.50;74.20;;;;;;5095372;28;20097;-57
2021/07/09 04:39:21;;;;;;;8.13;5.40;;;30.60;73.90;;;;;;5095035;28;20050;-57
2021/07/09 04:41:49;;;;;;;7.60;5.45;;;30.70;73.50;;;;;;5095108;28;20156;-57
2021/07/09 04:44:16;;;;;;;12.07;7.22;;;30.80;72.90;;;;;;5060543;28;20053;-57
2021/07/09 04:46:44;;;;;;;10.13;7.65;;;30.80;72.50;;;;;;5094991;28;20067;-57
2021/07/09 04:49:12;;;;;;;8.98;6.22;;;30.90;72.10;;;;;;5093302;28;20048;-57
2021/07/09 04:51:39;;;;;;;11.55;6.35;;;31.00;72.00;;;;;;5094752;28;20044;-57
2021/07/09 04:54:07;;;;;;;13.00;7.38;;;31.10;71.50;;;;;;5094773;28;20075;-57
2021/07/09 04:56:34;;;;;;;10.30;6.00;;;31.20;71.40;;;;;;5094788;28;20044;-57
2021/07/09 04:59:02;;;;;;;9.70;7.55;;;31.30;71.40;;;;;;5094718;28;20051;-57
2021/07/09 05:01:32;;;;;;;11.68;6.68;;;31.50;71.70;;;;;;5091195;28;20126;-56
2021/07/09 05:04:00;;;;;;;11.40;6.53;;;31.60;71.60;;;;;;5094715;28;20040;-57
2021/07/09 05:06:27;;;;;;;10.95;6.65;;;31.70;71.10;;;;;;5094559;28;20046;-57
2021/07/09 05:08:55;;;;;;;10.18;6.82;;;31.80;71.00;;;;;;5094207;28;20048;-57
2021/07/09 05:11:23;;;;;;;11.70;6.15;;;31.90;70.50;;;;;;5094522;28;20047;-57
2021/07/09 05:13:50;;;;;;;11.13;7.13;;;32.00;69.60;;;;;;5094214;28;20105;-57
2021/07/09 05:16:19;;;;;;;21.83;8.40;;;32.10;69.30;;;;;;5094950;28;20048;-57
2021/07/09 05:18:46;;;;;;;13.38;6.45;;;32.30;69.00;;;;;;5094628;28;20044;-57
2021/07/09 05:21:14;;;;;;;11.60;6.82;;;32.40;68.60;;;;;;5094354;28;20082;-57
2021/07/09 05:23:41;;;;;;;14.00;8.00;;;32.50;68.20;;;;;;5093986;28;20048;-57
2021/07/09 05:26:09;;;;;;;13.85;6.25;;;32.70;67.30;;;;;;5094278;28;20097;-57
2021/07/09 05:28:36;;;;;;;12.65;7.97;;;32.80;66.90;;;;;;5094341;28;20047;-57
2021/07/09 05:31:04;;;;;;;24.50;8.10;;;32.90;67.00;;;;;;5075494;28;20157;-58
2021/07/09 05:33:32;;;;;;;16.77;8.30;;;33.00;67.20;;;;;;5093792;28;20117;-57
2021/07/09 05:35:59;;;;;;;9.55;6.97;;;33.10;67.00;;;;;;5094086;28;20040;-57
2021/07/09 05:38:27;;;;;;;12.40;6.40;;;33.30;66.80;;;;;;5093980;28;20490;-57
2021/07/09 05:40:54;;;;;;;14.90;7.47;;;33.40;66.70;;;;;;5094080;28;20040;-57
2021/07/09 05:43:22;;;;;;;9.00;7.05;;;33.60;67.00;;;;;;5076048;28;20059;-57
2021/07/09 05:45:50;;;;;;;14.05;7.85;;;33.70;65.60;;;;;;5093837;28;20498;-58
2021/07/09 05:48:18;;;;;;;15.88;6.55;;;33.90;65.00;;;;;;5093953;28;20036;-57
2021/07/09 05:50:46;;;;;;;13.85;7.55;;;34.10;63.50;;;;;;5075330;28;20052;-57
2021/07/09 05:53:13;;;;;;;17.20;7.25;;;34.20;64.00;;;;;;5093580;28;20052;-57
2021/07/09 05:55:41;;;;;;;13.93;8.55;;;34.20;64.00;;;;;;5093464;28;20194;-57
2021/07/09 05:58:09;;;;;;;12.80;7.97;;;34.30;63.70;;;;;;5094141;28;20043;-58
2021/07/09 06:00:36;;;;;;;12.77;7.57;;;34.40;63.30;;;;;;5093995;28;20044;-58
2021/07/09 06:03:04;;;;;;;13.90;8.25;;;34.50;62.30;;;;;;5086136;28;20040;-57
2021/07/09 06:05:32;;;;;;;15.40;7.68;;;34.70;61.70;;;;;;5093523;28;20040;-57
2021/07/09 06:08:06;;;;;;;14.55;6.65;;;34.80;61.60;;;;;;5084457;28;20043;-58
2021/07/09 06:10:35;;;;;;;13.52;6.80;;;34.90;61.00;;;;;;5090006;28;20087;-57
2021/07/09 06:13:04;;;;;;;14.15;5.80;;;35.00;60.60;;;;;;5093715;28;20044;-57
2021/07/09 06:15:33;;;;;;;12.23;6.75;;;35.10;60.30;;;;;;5075105;28;20039;-57
2021/07/09 06:18:13;;;;;;;10.70;6.90;;;35.20;60.30;;;;;;5087632;28;20051;-57
2021/07/09 06:20:41;;;;;;;10.85;6.32;;;35.40;60.00;;;;;;5093283;28;20081;-58
2021/07/09 06:23:09;;;;;;;9.57;7.47;;;35.50;60.20;;;;;;5093232;28;20048;-57
2021/07/09 06:25:37;;;;;;;10.80;7.63;;;35.60;59.90;;;;;;5074682;28;20089;-57
2021/07/09 06:28:05;;;;;;;12.68;6.35;;;35.70;59.90;;;;;;5092898;28;20094;-57
2021/07/09 06:30:34;;;;;;;10.00;7.05;;;35.80;59.50;;;;;;5093249;28;20044;-57
2021/07/09 06:33:02;;;;;;;12.90;7.60;;;35.90;59.40;;;;;;5074766;28;20547;-57
2021/07/09 06:35:29;;;;;;;11.13;6.63;;;36.00;59.40;;;;;;5092668;28;20390;-57
2021/07/09 06:37:57;;;;;;;9.35;6.82;;;36.00;59.30;;;;;;5092837;28;20134;-57
2021/07/09 06:40:25;;;;;;;12.95;7.05;;;36.10;59.40;;;;;;5075687;28;20122;-57
2021/07/09 06:42:53;;;;;;;9.18;6.63;;;36.20;59.20;;;;;;5092821;28;20557;-57
2021/07/09 06:45:21;;;;;;;14.57;6.65;;;36.30;59.80;;;;;;5092994;28;20043;-57
2021/07/09 06:47:49;;;;;;;11.23;7.63;;;36.40;59.60;;;;;;5093207;28;20047;-57
2021/07/09 06:50:18;;;;;;;7.60;6.15;;;36.50;58.50;;;;;;5092675;28;20048;-56
2021/07/09 06:52:46;;;;;;;9.00;6.78;;;36.50;58.70;;;;;;5092995;28;20071;-49
2021/07/09 06:55:14;;;;;;;10.88;7.00;;;36.60;58.50;;;;;;5089837;28;20044;-58
2021/07/09 06:57:47;;;;;;;11.15;6.22;;;36.60;58.30;;;;;;5092509;28;20060;-58
2021/07/09 07:00:15;;;;;;;78.15;18.13;;;36.70;57.80;;;;;;5093021;28;20044;-59
2021/07/09 07:02:44;;;;;;;35.42;10.27;;;36.70;57.40;;;;;;5074652;28;20540;-59
2021/07/09 07:05:12;;;;;;;77.30;17.83;;;36.70;56.80;;;;;;5074883;28;20047;-59
2021/07/09 07:07:40;;;;;;;30.33;10.63;;;36.70;57.20;;;;;;5092683;28;20413;-59
2021/07/09 07:10:09;;;;;;;29.83;8.82;;;36.80;57.50;;;;;;5092902;28;20040;-59
2021/07/09 07:12:38;;;;;;;10.73;6.78;;;36.90;58.30;;;;;;5074734;28;20044;-59
2021/07/09 07:15:07;;;;;;;7.35;6.53;;;36.90;56.50;;;;;;5074775;28;20047;-60
2021/07/09 07:17:37;;;;;;;11.57;6.88;;;37.00;56.20;;;;;;5074286;28;20044;-59
2021/07/09 07:20:06;;;;;;;7.30;6.60;;;36.80;55.80;;;;;;5092449;28;20044;-59
2021/07/09 07:22:33;;;;;;;8.93;6.85;;;36.80;56.00;;;;;;5092773;28;20044;-59
2021/07/09 07:25:01;;;;;;;9.20;7.07;;;36.90;56.20;;;;;;5092464;28;20390;-61
2021/07/09 07:27:29;;;;;;;11.18;7.88;;;37.00;56.40;;;;;;5092274;28;20047;-60
2021/07/09 07:30:00;;;;;;;7.50;6.40;;;37.10;56.30;;;;;;5091295;28;20040;-60
2021/07/09 07:32:28;;;;;;;10.45;6.97;;;37.10;55.50;;;;;;5073326;28;20040;-60
2021/07/09 07:34:56;;;;;;;9.80;6.68;;;37.10;55.40;;;;;;5091537;28;20044;-61
2021/07/09 07:37:23;;;;;;;9.40;7.13;;;37.30;55.20;;;;;;5093171;28;20373;-60
2021/07/09 07:39:51;;;;;;;8.82;7.28;;;37.40;55.70;;;;;;5095069;28;20466;-60
2021/07/09 07:42:19;;;;;;;10.90;6.88;;;37.50;55.50;;;;;;5095231;28;20040;-60
2021/07/09 07:44:46;;;;;;;10.73;7.95;;;37.70;55.40;;;;;;5077227;28;20440;-60
2021/07/09 07:47:17;;;;;;;9.77;7.15;;;37.80;56.00;;;;;;5095178;28;20047;-60
2021/07/09 07:49:44;;;;;;;9.77;7.38;;;37.90;55.20;;;;;;5076673;28;20142;-60
2021/07/09 07:52:12;;;;;;;9.52;6.60;;;38.00;55.10;;;;;;5092116;28;20052;-60
2021/07/09 07:54:39;;;;;;;9.35;6.78;;;38.00;54.60;;;;;;5095086;28;20078;-60
2021/07/09 07:57:07;;;;;;;11.43;7.72;;;38.00;54.70;;;;;;5077396;28;20043;-60
2021/07/09 07:59:35;;;;;;;8.30;7.35;;;38.10;55.20;;;;;;5094526;28;20051;-60
2021/07/09 08:02:03;;;;;;;7.80;6.78;;;38.20;54.10;;;;;;5095238;28;20066;-60
2021/07/09 08:04:30;;;;;;;9.07;6.75;;;38.30;53.70;;;;;;5095187;28;20138;-58
2021/07/09 08:06:58;;;;;;;10.45;8.10;;;38.40;53.80;;;;;;5094797;28;20059;-60
2021/07/09 08:09:26;;;;;;;9.77;7.35;;;38.30;54.60;;;;;;5094395;28;20119;-60
2021/07/09 08:11:53;;;;;;;10.02;7.80;;;38.40;55.40;;;;;;5094495;28;20458;-60
2021/07/09 08:14:21;;;;;;;8.27;7.05;;;38.50;55.20;;;;;;5076741;28;20490;-60
2021/07/09 08:16:51;;;;;;;14.18;7.20;;;38.50;54.20;;;;;;5094550;28;20044;-60
2021/07/09 08:19:21;;;;;;;8.98;6.97;;;38.50;53.90;;;;;;5094826;28;20044;-60
2021/07/09 08:21:49;;;;;;;9.23;7.53;;;38.50;54.60;;;;;;5075984;28;20502;-60
2021/07/09 08:24:18;;;;;;;8.38;7.00;;;38.50;54.60;;;;;;5094143;28;20092;-60
2021/07/09 08:26:46;;;;;;;10.50;7.10;;;38.50;54.50;;;;;;5094404;28;20040;-61
2021/07/09 08:29:14;;;;;;;9.82;7.60;;;38.50;54.00;;;;;;5076347;28;20036;-60
2021/07/09 08:31:50;;;;;;;10.68;6.43;;;38.50;53.90;;;;;;5075834;28;20048;-60
2021/07/09 08:34:17;;;;;;;9.18;7.65;;;38.50;54.20;;;;;;5094716;28;20051;-61
2021/07/09 08:36:45;;;;;;;8.25;7.13;;;38.50;54.00;;;;;;5093939;28;20101;-60
2021/07/09 08:39:15;;;;;;;11.35;6.90;;;38.50;53.90;;;;;;5093653;28;20040;-60
2021/07/09 08:41:45;;;;;;;8.45;7.55;;;38.50;53.50;;;;;;5093762;28;20051;-60
2021/07/09 08:44:13;;;;;;;10.82;7.28;;;38.50;52.90;;;;;;5093743;28;20122;-60
2021/07/09 08:46:41;;;;;;;8.52;7.50;;;38.60;53.00;;;;;;5093697;28;20448;-60
2021/07/09 08:49:14;;;;;;;8.40;6.57;;;38.60;52.10;;;;;;5093722;28;20114;-60
2021/07/09 08:51:44;;;;;;;7.15;6.18;;;38.40;51.60;;;;;;5093436;28;20060;-60
2021/07/09 08:54:18;;;;;;;8.40;6.50;;;38.50;51.60;;;;;;5093617;28;20405;-60
2021/07/09 08:56:47;;;;;;;;;;;38.50;51.80;;;;;;5094054;28;20527;-60
2021/07/09 08:59:15;;;;;;;7.13;5.85;;;38.60;51.70;;;;;;5093634;28;19992;-60
2021/07/09 09:01:56;;;;;;;7.88;7.07;;;38.70;51.70;;;;;;5093677;28;20093;-60
2021/07/09 09:04:32;;;;;;;9.18;6.13;;;38.80;51.50;;;;;;5093458;28;20408;-61
2021/07/09 09:07:06;;;;;;;10.45;7.50;;;38.70;53.70;;;;;;5094393;28;20047;-61
2021/07/09 09:09:36;;;;;;;11.38;8.32;;;38.70;54.20;;;;;;5094106;28;20048;-60
2021/07/09 09:12:10;;;;;;;9.30;7.20;;;38.60;53.50;;;;;;5087342;28;20111;-60
2021/07/09 09:14:46;;;;;;;9.20;6.93;;;38.40;55.30;;;;;;5094084;28;20131;-60
2021/07/09 09:17:23;;;;;;;11.32;7.75;;;38.20;55.40;;;;;;5094448;28;20071;-60
2021/07/09 09:20:13;;;;;;;7.65;6.85;;;38.30;55.30;;;;;;5094316;28;20818;-60
2021/07/09 09:22:50;;;;;;;12.52;7.45;;;38.20;54.70;;;;;;5073575;28;20040;-60
2021/07/09 09:25:20;;;;;;;10.02;7.40;;;37.70;56.90;;;;;;5093206;28;20484;-59
2021/07/09 09:28:01;;;;;;;10.15;7.45;;;37.80;57.20;;;;;;5094021;28;20044;-60
2021/07/09 09:30:29;;;;;;;10.52;7.72;;;37.80;57.10;;;;;;5075871;28;20063;-60
2021/07/09 09:32:59;;;;;;;9.73;8.25;;;37.90;57.60;;;;;;5075840;28;20050;-60
2021/07/09 09:35:30;;;;;;;19.30;8.70;;;38.10;57.50;;;;;;5093727;28;20453;-59
2021/07/09 09:38:01;;;;;;;9.23;7.28;;;38.20;57.20;;;;;;5093922;28;20147;-60
2021/07/09 09:40:31;;;;;;;9.07;7.40;;;38.30;57.20;;;;;;5094031;28;20047;-60
2021/07/09 09:43:09;;;;;;;10.10;8.20;;;38.20;57.60;;;;;;5094069;28;20048;-60
2021/07/09 09:45:38;;;;;;;9.05;7.00;;;38.40;57.70;;;;;;5093692;28;20126;-60
2021/07/09 09:48:09;;;;;;;9.23;6.97;;;38.50;57.70;;;;;;5086423;28;20405;-60
2021/07/09 09:50:49;;;;;;;9.93;7.35;;;38.40;57.40;;;;;;5093502;28;20436;-59
2021/07/09 09:53:32;;;;;;;8.45;6.78;;;38.30;58.20;;;;;;5093556;28;20170;-60
2021/07/09 09:56:10;;;;;;;10.20;7.13;;;38.20;58.10;;;;;;5067622;28;20493;-59
2021/07/09 09:58:39;;;;;;;9.32;7.40;;;38.10;58.20;;;;;;5072494;28;20044;-59
2021/07/09 10:01:07;;;;;;;8.23;6.90;;;38.00;58.60;;;;;;5074941;28;20056;-60
2021/07/09 10:03:35;;;;;;;7.68;6.78;;;37.80;58.80;;;;;;5092915;28;20132;-59
2021/07/09 10:06:03;;;;;;;11.65;8.10;;;37.50;59.00;;;;;;5093161;28;20040;-60
2021/07/09 10:08:30;;;;;;;10.18;7.93;;;37.50;58.90;;;;;;5074951;28;20068;-59
2021/07/09 10:11:01;;;;;;;10.57;7.47;;;37.40;59.10;;;;;;5093178;28;20125;-60
2021/07/09 10:13:30;;;;;;;9.32;7.22;;;37.30;59.40;;;;;;5089074;28;20131;-59
2021/07/09 10:15:58;;;;;;;8.50;7.05;;;37.40;59.40;;;;;;5093672;28;20044;-60
2021/07/09 10:18:26;;;;;;;9.45;6.80;;;37.40;59.40;;;;;;5093337;28;20048;-60
2021/07/09 10:20:53;;;;;;;11.10;7.10;;;37.30;59.10;;;;;;5092843;28;20058;-60
2021/07/09 10:23:21;;;;;;;11.77;7.10;;;37.20;59.50;;;;;;5092963;28;20559;-59
2021/07/09 10:25:50;;;;;;;8.98;7.10;;;37.10;59.60;;;;;;5093286;28;20040;-60
2021/07/09 10:28:22;;;;;;;8.80;7.35;;;37.10;59.60;;;;;;5093384;28;20126;-60
2021/07/09 10:30:54;;;;;;;8.20;6.15;;;37.00;59.40;;;;;;5092885;28;20085;-60
2021/07/09 10:33:31;;;;;;;9.73;7.00;;;37.00;58.80;;;;;;5092798;28;20051;-60
2021/07/09 10:36:07;;;;;;;11.30;6.70;;;37.00;59.00;;;;;;5092952;28;20040;-61
2021/07/09 10:38:41;;;;;;;9.90;6.53;;;37.00;59.20;;;;;;5092760;28;20489;-60
2021/07/09 10:41:13;;;;;;;8.40;6.43;;;36.70;59.10;;;;;;5093048;28;20036;-60
2021/07/09 10:43:41;;;;;;;9.13;6.65;;;36.40;59.00;;;;;;5074762;28;20130;-60
2021/07/09 10:46:47;;;;;;;7.88;6.78;;;36.20;59.30;;;;;;5075037;28;20035;-60
2021/07/09 10:49:51;;;;;;;10.23;7.38;;;36.30;59.40;;;;;;4970887;28;20067;-59
2021/07/09 10:52:44;;;;;;;7.63;6.20;;;36.50;58.70;;;;;;4989958;28;20053;-60
2021/07/09 10:55:27;;;;;;;10.05;6.00;;;36.50;58.00;;;;;;4988983;28;20042;-60
2021/07/09 10:58:07;;;;;;;8.93;6.20;;;36.60;58.20;;;;;;4990860;28;20480;-61
2021/07/09 11:00:56;;;;;;;8.23;6.65;;;36.50;58.10;;;;;;4974665;28;20046;-60
2021/07/09 11:03:37;;;;;;;9.13;6.82;;;36.60;57.40;;;;;;4986325;28;20050;-59
2021/07/09 11:06:14;;;;;;;8.10;6.00;;;36.60;56.10;;;;;;4984558;28;20483;-58
2021/07/09 11:09:02;;;;;;;6.82;6.00;;;36.60;55.80;;;;;;4990758;28;20135;-60
2021/07/09 11:11:43;;;;;;;7.80;5.80;;;36.70;55.60;;;;;;4992520;28;20136;-60
2021/07/09 11:14:35;;;;;;;10.00;7.45;;;36.70;55.60;;;;;;4994651;28;20054;-60
2021/07/09 11:17:21;;;;;;;9.38;6.10;;;36.70;54.60;;;;;;4986879;28;20054;-60
2021/07/09 11:20:11;;;;;;;;;;;36.70;55.00;;;;;;4995060;28;20061;-60
2021/07/09 11:22:43;;;;;;;7.57;6.10;;;36.70;54.50;;;;;;4992519;28;19972;-60
2021/07/09 11:25:21;;;;;;;8.85;6.18;;;36.90;54.10;;;;;;4993242;28;20054;-61
2021/07/09 11:27:53;;;;;;;8.98;6.85;;;37.00;53.80;;;;;;5027424;28;20060;-60
2021/07/09 11:30:27;;;;;;;7.75;6.22;;;37.00;53.70;;;;;;5033691;28;20495;-61
2021/07/09 11:32:55;;;;;;;8.98;6.30;;;37.20;53.80;;;;;;5033489;28;20533;-61
2021/07/09 11:35:25;;;;;;;7.15;6.38;;;37.20;53.90;;;;;;5033313;28;20045;-58
2021/07/09 11:37:53;;;;;;;7.20;5.97;;;37.10;53.90;;;;;;5017059;28;20447;-60
2021/07/09 11:40:22;;;;;;;8.43;6.20;;;36.80;54.00;;;;;;5083482;28;20127;-61
2021/07/09 11:42:49;;;;;;;7.30;6.13;;;36.90;54.30;;;;;;5096009;28;20044;-60
2021/07/09 11:45:20;;;;;;;7.35;5.82;;;36.80;53.70;;;;;;5078501;28;20046;-60
2021/07/09 11:47:49;;;;;;;7.30;6.32;;;36.90;53.70;;;;;;5095766;28;20480;-60
2021/07/09 11:50:19;;;;;;;6.90;5.95;;;37.00;53.60;;;;;;5095912;28;20039;-60
2021/07/09 11:52:52;;;;;;;13.40;6.25;;;37.10;53.60;;;;;;5077536;28;20040;-60
2021/07/09 11:55:26;;;;;;;9.80;5.97;;;37.10;53.40;;;;;;5095270;28;20040;-60
2021/07/09 11:57:55;;;;;;;9.40;6.90;;;37.20;53.20;;;;;;5095863;28;20040;-61
2021/07/09 12:00:23;;;;;;;9.18;6.18;;;37.10;54.60;;;;;;5095613;28;20097;-59
2021/07/09 12:02:51;;;;;;;7.32;5.75;;;36.90;54.00;;;;;;5077611;28;20394;-59
2021/07/09 12:05:22;;;;;;;8.02;5.82;;;36.90;53.70;;;;;;5077666;28;20044;-58
2021/07/09 12:07:52;;;;;;;6.78;5.88;;;37.00;53.60;;;;;;5095622;28;20081;-58
2021/07/09 12:10:29;;;;;;;10.45;6.45;;;37.10;53.40;;;;;;5095986;28;20480;-58
2021/07/09 12:13:03;;;;;;;7.70;6.82;;;37.20;53.30;;;;;;5095494;28;20040;-58
2021/07/09 12:15:39;;;;;;;7.03;6.32;;;37.30;53.40;;;;;;5095332;28;20434;-58
2021/07/09 12:18:13;;;;;;;9.13;7.05;;;37.20;54.30;;;;;;5088458;28;20113;-58
2021/07/09 12:20:49;;;;;;;14.18;7.05;;;37.20;54.20;;;;;;5095491;28;20044;-58
2021/07/09 12:23:21;;;;;;;9.80;6.70;;;37.40;53.90;;;;;;5094481;28;20450;-59
2021/07/09 12:25:54;;;;;;;9.52;6.22;;;37.50;53.80;;;;;;5095187;28;20044;-58
2021/07/09 12:28:25;;;;;;;7.18;5.85;;;37.60;54.10;;;;;;5095797;28;20432;-58
2021/07/09 12:30:55;;;;;;;8.48;6.75;;;37.60;54.00;;;;;;5095148;28;20040;-58
2021/07/09 12:33:33;;;;;;;7.65;6.28;;;37.50;53.40;;;;;;5094935;28;20134;-58
2021/07/09 12:36:08;;;;;;;7.47;6.38;;;37.60;53.30;;;;;;5094583;28;20040;-58
2021/07/09 12:38:43;;;;;;;11.00;7.22;;;37.70;53.80;;;;;;5095077;28;20032;-57
2021/07/09 12:41:13;;;;;;;7.67;6.40;;;37.70;54.20;;;;;;5095017;28;20047;-58
2021/07/09 12:43:48;;;;;;;11.65;5.90;;;37.60;54.30;;;;;;5094759;28;20344;-58
2021/07/09 12:46:26;;;;;;;7.10;4.72;;;37.60;54.00;;;;;;5093814;28;20056;-58
2021/07/09 12:49:06;;;;;;;8.30;4.85;;;37.70;53.90;;;;;;5094797;28;20059;-58
2021/07/09 12:51:40;;;;;;;6.35;4.70;;;37.80;53.20;;;;;;5094560;28;20490;-58
2021/07/09 12:54:14;;;;;;;6.03;4.72;;;38.00;53.10;;;;;;5087809;28;20135;-58
2021/07/09 12:56:42;;;;;;;9.18;5.43;;;38.10;53.20;;;;;;5095035;28;20462;-58
2021/07/09 12:59:14;;;;;;;9.68;5.32;;;38.20;53.20;;;;;;5094374;28;20042;-58